Time;durP1;ratioP1;P1;durP2;ratioP2;P2;SDS_P1;SDS_P2;PMS_P1;PMS_P2;Temp;Humidity;BMP_temperature;BMP_pressure;BME280_temperature;BME280_humidity;BME280_pressure;Samples;Min_cycle;Max_cycle;Signal;HPM_P1;HPM_P2
2022/10/18 00:01:16;;;;;;;3.22;1.35;;;;;;;11.46;78.59;100967.03;4845709;29;20053;-66
2022/10/18 00:03:45;;;;;;;1.23;0.68;;;;;;;11.42;78.60;100975.47;4845906;29;20052;-66
2022/10/18 00:06:13;;;;;;;0.63;0.63;;;;;;;11.43;78.86;100964.41;4845703;29;20517;-65
2022/10/18 00:08:43;;;;;;;0.52;0.52;;;;;;;11.43;78.75;100962.72;4845633;29;20058;-65
2022/10/18 00:11:12;;;;;;;1.02;0.93;;;;;;;11.44;78.68;100955.91;4845916;29;20053;-66
2022/10/18 00:13:41;;;;;;;0.85;0.68;;;;;;;11.40;78.66;100959.22;4845360;29;20058;-66
2022/10/18 00:16:12;;;;;;;0.73;0.73;;;;;;;11.29;78.78;100940.31;4845555;29;20042;-66
2022/10/18 00:18:41;;;;;;;3.25;1.48;;;;;;;11.28;78.79;100941.13;4845542;29;20110;-65
2022/10/18 00:21:12;;;;;;;0.93;0.90;;;;;;;11.29;79.01;100953.97;4845791;29;20046;-66
2022/10/18 00:23:43;;;;;;;1.98;1.67;;;;;;;11.27;78.92;100944.53;4845573;29;20045;-65
2022/10/18 00:26:14;;;;;;;4.32;1.50;;;;;;;11.21;78.99;100944.44;4845730;29;20054;-65
2022/10/18 00:28:45;;;;;;;1.50;1.40;;;;;;;11.22;78.86;100946.16;4845656;29;20057;-66
2022/10/18 00:31:15;;;;;;;;;;;;;;;11.19;79.13;100936.75;4846187;29;20093;-65
2022/10/18 00:33:44;;;;;;;;;;;;;;;11.17;78.97;100942.66;4845817;29;20294;-66
2022/10/18 00:36:14;;;;;;;0.80;0.77;;;;;;;11.21;79.21;100939.31;4845763;29;19924;-66
2022/10/18 00:38:44;;;;;;;0.77;0.77;;;;;;;11.19;79.20;100935.88;4845489;29;20049;-66
2022/10/18 00:41:22;;;;;;;0.75;0.75;;;;;;;11.18;79.11;100941.84;4845139;29;20068;-66
2022/10/18 00:43:57;;;;;;;0.75;0.75;;;;;;;11.09;79.16;100931.44;4845025;29;20058;-66
2022/10/18 00:46:28;;;;;;;1.75;1.65;;;;;;;11.13;78.90;100936.63;4859530;29;20501;-66
2022/10/18 00:48:59;;;;;;;1.40;1.30;;;;;;;11.10;78.78;100933.19;4845277;29;20052;-66
2022/10/18 00:51:33;;;;;;;1.63;1.52;;;;;;;11.03;78.87;100933.91;4845245;29;20096;-66
2022/10/18 00:54:04;;;;;;;2.47;1.52;;;;;;;11.03;78.88;100936.47;4845084;29;20069;-66
2022/10/18 00:56:34;;;;;;;0.60;0.60;;;;;;;10.99;79.36;100932.13;4844900;29;20146;-65
2022/10/18 00:59:03;;;;;;;0.80;0.80;;;;;;;10.95;79.22;100927.78;4845135;29;20054;-66
2022/10/18 01:01:32;;;;;;;3.07;1.83;;;;;;;10.94;79.25;100936.31;4844738;29;20042;-66
2022/10/18 01:04:01;;;;;;;1.20;0.75;;;;;;;10.93;79.42;100932.00;4844690;29;20321;-66
2022/10/18 01:06:30;;;;;;;0.82;0.80;;;;;;;10.90;79.31;100922.59;4844929;29;20047;-66
2022/10/18 01:09:11;;;;;;;3.25;1.35;;;;;;;10.90;79.14;100930.25;4844680;29;20057;-66
2022/10/18 01:12:19;;;;;;;1.45;1.17;;;;;;;10.89;79.33;100927.69;4844611;29;20068;-65
2022/10/18 01:14:54;;;;;;;1.15;1.05;;;;;;;10.88;79.74;100928.50;4844410;29;20062;-66
2022/10/18 01:17:31;;;;;;;1.42;1.33;;;;;;;10.88;79.32;100920.84;4845580;29;20053;-65
2022/10/18 01:20:23;;;;;;;2.38;1.80;;;;;;;10.86;79.38;100925.06;4844490;29;20053;-66
2022/10/18 01:22:58;;;;;;;3.45;0.93;;;;;;;10.75;79.54;100912.97;4844443;29;20565;-66
2022/10/18 01:25:39;;;;;;;0.50;0.50;;;;;;;10.75;79.39;100919.75;4844569;29;20058;-66
2022/10/18 01:28:20;;;;;;;2.65;2.15;;;;;;;10.71;79.85;100921.41;4844591;29;20158;-66
2022/10/18 01:30:56;;;;;;;0.80;0.70;;;;;;;10.69;79.59;100917.97;4844566;29;20068;-66
2022/10/18 01:33:37;;;;;;;1.65;1.00;;;;;;;10.66;79.50;100907.69;4843848;29;20054;-65
2022/10/18 01:36:11;;;;;;;2.67;1.58;;;;;;;10.63;79.66;100912.75;4844146;29;20057;-65
2022/10/18 01:38:43;;;;;;;1.05;1.00;;;;;;;10.61;79.56;100919.50;4844139;29;20110;-66
2022/10/18 01:41:13;;;;;;;1.33;1.23;;;;;;;10.59;80.04;100921.19;4844089;29;20049;-65
2022/10/18 01:43:46;;;;;;;2.38;2.17;;;;;;;10.55;79.90;100919.41;4844305;29;20417;-66
2022/10/18 01:46:21;;;;;;;0.40;0.40;;;;;;;10.57;80.14;100917.75;4843940;29;20057;-66
2022/10/18 01:48:52;;;;;;;0.65;0.65;;;;;;;10.56;80.17;100910.91;4843951;29;20073;-66
2022/10/18 01:51:24;;;;;;;1.90;1.30;;;;;;;10.53;79.72;100915.09;4843902;29;20053;-66
2022/10/18 01:53:54;;;;;;;0.70;0.70;;;;;;;10.56;79.86;100915.13;4844159;29;20085;-66
2022/10/18 01:56:32;;;;;;;2.30;1.90;;;;;;;10.56;80.19;100910.03;4843729;29;20048;-66
2022/10/18 01:59:22;;;;;;;1.95;1.33;;;;;;;10.54;80.23;100906.59;4858027;29;20050;-66
2022/10/18 02:02:00;;;;;;;0.98;0.85;;;;;;;10.53;80.04;100907.44;4843701;29;20068;-66
2022/10/18 02:04:34;;;;;;;0.63;0.60;;;;;;;10.55;79.79;100899.00;4843696;29;20501;-66
2022/10/18 02:07:12;;;;;;;0.40;0.40;;;;;;;10.53;79.62;100895.53;4843607;29;20068;-65
2022/10/18 02:09:49;;;;;;;0.38;0.38;;;;;;;10.48;79.65;100901.38;4843585;29;20084;-65
2022/10/18 02:12:20;;;;;;;1.35;1.23;;;;;;;10.46;79.61;100897.97;4843545;29;20106;-66
2022/10/18 02:14:50;;;;;;;1.58;1.40;;;;;;;10.47;79.63;100900.53;4857805;29;20054;-65
2022/10/18 02:17:21;;;;;;;0.65;0.65;;;;;;;10.45;79.51;100901.31;4843473;29;20038;-66
2022/10/18 02:19:53;;;;;;;2.63;1.23;;;;;;;10.42;79.50;100897.03;4843414;29;20084;-65
2022/10/18 02:22:24;;;;;;;2.92;1.98;;;;;;;10.40;79.86;100903.78;4843405;29;20057;-65
2022/10/18 02:24:57;;;;;;;1.13;1.02;;;;;;;10.39;79.93;100906.31;4843341;29;20098;-65
2022/10/18 02:27:26;;;;;;;4.22;1.65;;;;;;;10.35;79.68;100902.84;4843562;29;20723;-66
2022/10/18 02:29:55;;;;;;;1.20;1.10;;;;;;;10.29;79.98;100905.28;4843294;29;20050;-66
2022/10/18 02:32:32;;;;;;;0.50;0.50;;;;;;;10.24;80.04;100899.22;4843773;29;20042;-65
2022/10/18 02:35:07;;;;;;;0.50;0.50;;;;;;;10.26;80.00;100899.25;4843115;29;20041;-65
2022/10/18 02:37:39;;;;;;;1.23;1.13;;;;;;;10.25;80.05;100898.38;4843344;29;20408;-65
2022/10/18 02:40:10;;;;;;;1.40;1.30;;;;;;;10.25;80.26;100890.72;4843116;29;20065;-65
2022/10/18 02:42:43;;;;;;;0.80;0.75;;;;;;;10.24;79.91;100891.56;4843078;29;20054;-66
2022/10/18 02:45:13;;;;;;;1.67;1.25;;;;;;;10.23;79.52;100900.03;4842902;29;20054;-66
2022/10/18 02:47:43;;;;;;;1.00;0.98;;;;;;;10.20;80.15;100884.66;4843040;29;20046;-66
2022/10/18 02:50:12;;;;;;;0.65;0.65;;;;;;;10.19;79.54;100888.06;4843009;29;20054;-66
2022/10/18 02:52:40;;;;;;;0.95;0.88;;;;;;;10.17;80.08;100882.06;4843230;29;20046;-65
2022/10/18 02:55:10;;;;;;;1.83;1.52;;;;;;;10.17;79.62;100883.75;4842839;29;20081;-66
2022/10/18 02:57:38;;;;;;;1.25;1.15;;;;;;;10.15;79.42;100881.16;4843143;29;20038;-66
2022/10/18 03:00:08;;;;;;;0.38;0.38;;;;;;;10.13;79.98;100890.47;4842868;29;20053;-65
2022/10/18 03:02:37;;;;;;;1.02;0.95;;;;;;;10.11;79.80;100881.91;4843129;29;20081;-66
2022/10/18 03:05:07;;;;;;;0.95;0.93;;;;;;;10.01;79.15;100877.44;4842834;29;20054;-65
2022/10/18 03:07:36;;;;;;;2.67;2.40;;;;;;;9.95;79.45;100873.09;4842776;29;20110;-66
2022/10/18 03:10:05;;;;;;;6.72;2.47;;;;;;;9.96;79.04;100877.34;4843043;29;20424;-66
2022/10/18 03:12:34;;;;;;;2.35;2.15;;;;;;;9.83;79.38;100856.66;4842512;29;20046;-66
2022/10/18 03:15:03;;;;;;;3.55;2.42;;;;;;;9.96;78.98;100879.03;4842692;29;20064;-66
2022/10/18 03:17:31;;;;;;;3.40;2.43;;;;;;;9.94;79.19;100881.56;4842959;29;20042;-65
2022/10/18 03:20:00;;;;;;;3.53;3.10;;;;;;;9.98;79.48;100877.41;4843223;29;20042;-66
2022/10/18 03:22:30;;;;;;;5.80;4.20;;;;;;;9.98;80.12;100879.94;4842931;29;20054;-66
2022/10/18 03:24:59;;;;;;;2.50;2.30;;;;;;;9.98;79.42;100885.88;4842617;29;20083;-65
2022/10/18 03:27:28;;;;;;;3.88;1.85;;;;;;;9.98;79.51;100878.22;4842894;29;20042;-66
2022/10/18 03:29:58;;;;;;;2.20;2.00;;;;;;;9.96;79.75;100884.13;4842536;29;20046;-66
2022/10/18 03:32:26;;;;;;;27.27;2.40;;;;;;;9.95;79.38;100883.28;4842866;29;20405;-66
2022/10/18 03:34:55;;;;;;;0.60;0.60;;;;;;;9.93;79.84;100878.97;4842852;29;20129;-65
2022/10/18 03:37:24;;;;;;;2.08;1.92;;;;;;;9.86;80.19;100884.78;4842690;29;20042;-65
2022/10/18 03:39:54;;;;;;;0.80;0.77;;;;;;;9.84;80.34;100878.75;4842430;29;20050;-65
2022/10/18 03:42:22;;;;;;;0.40;0.40;;;;;;;9.82;80.12;100882.97;4842559;29;20541;-66
2022/10/18 03:44:51;;;;;;;1.25;1.15;;;;;;;9.82;80.17;100877.88;4842483;29;20050;-65
2022/10/18 03:47:20;;;;;;;0.88;0.88;;;;;;;9.82;80.71;100877.88;4842396;29;20046;-66
2022/10/18 03:49:49;;;;;;;1.13;1.02;;;;;;;9.85;79.88;100877.94;4842438;29;20100;-66
2022/10/18 03:52:23;;;;;;;2.55;2.13;;;;;;;9.88;80.13;100875.47;4841550;29;20050;-66
2022/10/18 03:54:53;;;;;;;8.60;3.03;;;;;;;9.87;80.17;100878.84;4842376;29;20050;-65
2022/10/18 03:57:22;;;;;;;9.80;1.80;;;;;;;9.84;79.74;100869.44;4843662;29;20042;-66
2022/10/18 03:59:51;;;;;;;0.88;0.88;;;;;;;9.84;80.13;100871.13;4846001;29;20048;-65
2022/10/18 04:02:19;;;;;;;1.92;1.63;;;;;;;9.81;79.64;100873.63;4845758;29;20107;-65
2022/10/18 04:04:48;;;;;;;1.58;1.48;;;;;;;9.78;80.41;100878.66;4859963;29;20086;-66
2022/10/18 04:07:17;;;;;;;0.75;0.75;;;;;;;9.75;79.83;100878.56;4845763;29;20054;-66
2022/10/18 04:09:45;;;;;;;0.82;0.82;;;;;;;9.75;80.13;100870.94;4845777;29;20060;-65
2022/10/18 04:12:15;;;;;;;0.88;0.85;;;;;;;9.75;80.69;100878.56;4845668;29;20497;-65
2022/10/18 04:14:44;;;;;;;2.80;1.88;;;;;;;9.74;79.79;100866.66;4845656;29;20093;-66
2022/10/18 04:17:13;;;;;;;1.52;1.42;;;;;;;9.75;79.88;100869.25;4845619;29;20040;-66
2022/10/18 04:19:41;;;;;;;1.85;1.73;;;;;;;9.73;79.63;100859.84;4846047;29;20038;-65
2022/10/18 04:22:11;;;;;;;0.88;0.85;;;;;;;9.72;80.15;100861.53;4845371;29;20057;-66
2022/10/18 04:24:40;;;;;;;0.63;0.63;;;;;;;9.70;80.38;100865.72;4845721;29;20146;-65
2022/10/18 04:27:09;;;;;;;0.70;0.60;;;;;;;9.67;80.31;100864.81;4845676;29;20400;-66
2022/10/18 04:29:39;;;;;;;0.90;0.90;;;;;;;9.68;80.66;100867.38;4845638;29;20132;-66
2022/10/18 04:32:07;;;;;;;3.17;2.10;;;;;;;9.67;80.51;100860.56;4845275;29;20068;-66
2022/10/18 04:34:36;;;;;;;6.85;2.83;;;;;;;9.68;80.02;100863.97;4845226;29;20048;-66
2022/10/18 04:37:05;;;;;;;1.77;1.40;;;;;;;9.66;80.15;100858.00;4845152;29;20094;-66
2022/10/18 04:39:33;;;;;;;1.70;1.60;;;;;;;9.56;79.77;100851.81;4845153;29;20054;-66
2022/10/18 04:42:02;;;;;;;2.27;1.60;;;;;;;9.62;80.68;100866.41;4845382;29;20592;-65
2022/10/18 04:44:31;;;;;;;1.52;1.40;;;;;;;9.63;80.29;100868.09;4845077;29;20046;-65
2022/10/18 04:47:01;;;;;;;1.42;1.33;;;;;;;9.64;80.07;100869.84;4844969;29;20114;-66
2022/10/18 04:49:30;;;;;;;0.85;0.82;;;;;;;9.61;80.78;100860.44;4845014;29;20087;-65
2022/10/18 04:51:59;;;;;;;1.55;1.45;;;;;;;9.64;80.92;100865.63;4844895;29;20050;-65
2022/10/18 04:54:28;;;;;;;17.52;1.48;;;;;;;9.65;80.82;100857.13;4845236;29;20042;-66
2022/10/18 04:56:56;;;;;;;1.55;1.23;;;;;;;9.71;80.26;100851.31;4844967;29;20516;-66
2022/10/18 04:59:25;;;;;;;4.32;3.03;;;;;;;9.64;80.33;100855.41;4845119;29;20046;-65
2022/10/18 05:01:53;;;;;;;2.85;1.58;;;;;;;9.65;80.63;100856.25;4845009;29;20077;-66
2022/10/18 05:04:24;;;;;;;4.53;3.07;;;;;;;9.63;80.27;100863.00;4859109;29;20058;-65
2022/10/18 05:06:52;;;;;;;1.85;1.55;;;;;;;9.59;79.97;100857.00;4845304;29;20046;-66
2022/10/18 05:09:23;;;;;;;1.50;1.40;;;;;;;9.59;79.91;100858.69;4844056;29;20072;-66
2022/10/18 05:11:52;;;;;;;2.70;2.28;;;;;;;9.59;79.62;100856.13;4844910;29;20054;-66
2022/10/18 05:14:21;;;;;;;3.28;1.55;;;;;;;9.59;79.74;100856.13;4844554;29;20076;-65
2022/10/18 05:16:49;;;;;;;1.73;1.60;;;;;;;9.56;79.62;100843.31;4844929;29;20091;-65
2022/10/18 05:19:18;;;;;;;1.08;0.90;;;;;;;9.52;79.97;100849.19;4844424;29;20038;-66
2022/10/18 05:21:48;;;;;;;2.38;0.95;;;;;;;9.50;79.60;100845.75;4844654;29;20053;-65
2022/10/18 05:24:17;;;;;;;0.77;0.77;;;;;;;9.50;80.05;100861.03;4844322;29;20054;-65
2022/10/18 05:26:48;;;;;;;1.23;1.10;;;;;;;9.49;80.50;100854.19;4845193;29;20054;-65
2022/10/18 05:29:17;;;;;;;1.67;1.58;;;;;;;9.47;79.82;100850.75;4844583;29;20049;-65
2022/10/18 05:31:45;;;;;;;5.47;3.00;;;;;;;9.50;80.33;100855.94;4844765;29;20060;-65
2022/10/18 05:34:14;;;;;;;9.90;2.85;;;;;;;9.51;80.79;100857.63;4844022;29;20052;-65
2022/10/18 05:36:43;;;;;;;1.63;1.52;;;;;;;9.51;80.37;100852.53;4844013;29;20046;-65
2022/10/18 05:39:13;;;;;;;1.80;1.70;;;;;;;9.51;80.24;100853.41;4844043;29;20046;-65
2022/10/18 05:41:42;;;;;;;2.47;1.70;;;;;;;9.53;80.91;100846.66;4844052;29;20057;-65
2022/10/18 05:44:10;;;;;;;2.97;2.70;;;;;;;9.59;80.91;100848.47;4844058;29;20560;-65
2022/10/18 05:46:39;;;;;;;3.60;3.10;;;;;;;9.64;81.07;100852.00;4843934;29;20106;-64
2022/10/18 05:49:08;;;;;;;3.00;2.17;;;;;;;9.68;81.07;100835.94;4844255;29;20053;-64
2022/10/18 05:51:36;;;;;;;4.82;3.63;;;;;;;9.71;80.47;100846.19;4843861;29;20523;-66
2022/10/18 05:54:05;;;;;;;2.55;2.05;;;;;;;9.77;81.02;100847.19;4843801;29;20050;-66
2022/10/18 05:56:35;;;;;;;7.10;4.38;;;;;;;9.84;80.68;100850.72;4843695;29;20133;-66
2022/10/18 05:59:08;;;;;;;2.40;2.13;;;;;;;9.88;80.09;100844.88;4844021;29;20046;-66
2022/10/18 06:01:38;;;;;;;3.03;2.72;;;;;;;10.02;80.31;100857.09;4843993;29;20060;-66
2022/10/18 06:04:08;;;;;;;1.50;1.40;;;;;;;10.15;80.67;100845.44;4843950;29;20445;-66
2022/10/18 06:06:38;;;;;;;1.10;1.00;;;;;;;10.31;80.60;100860.25;4843881;29;20122;-66
2022/10/18 06:09:08;;;;;;;;;;;;;;;10.44;80.26;100853.66;4843901;29;20060;-65
2022/10/18 06:11:38;;;;;;;1.33;1.23;;;;;;;10.58;80.25;100858.19;4843868;29;19924;-66
2022/10/18 06:14:08;;;;;;;3.95;2.00;;;;;;;10.68;79.40;100857.50;4843468;29;20049;-65
2022/10/18 06:16:37;;;;;;;2.20;2.00;;;;;;;10.79;79.72;100862.81;4843687;29;20058;-66
2022/10/18 06:19:05;;;;;;;0.97;0.87;;;;;;;10.97;79.13;100867.34;4843378;29;20133;-65
2022/10/18 06:21:34;;;;;;;0.95;0.90;;;;;;;11.10;78.86;100865.06;4843230;29;20342;-66
2022/10/18 06:24:03;;;;;;;1.98;1.35;;;;;;;11.26;78.86;100861.91;4843352;29;20046;-65
2022/10/18 06:26:31;;;;;;;1.15;1.05;;;;;;;11.42;78.55;100865.56;4843544;29;20094;-65
2022/10/18 06:29:01;;;;;;;3.55;1.85;;;;;;;11.57;78.60;100857.22;4843555;29;20126;-65
2022/10/18 06:31:30;;;;;;;2.53;2.08;;;;;;;11.71;78.28;100864.28;4843213;29;20519;-66
2022/10/18 06:33:59;;;;;;;1.38;1.27;;;;;;;11.89;77.92;100871.34;4843442;29;20050;-66
2022/10/18 06:36:28;;;;;;;3.85;2.60;;;;;;;11.99;77.59;100874.06;4843134;29;20034;-66
2022/10/18 06:38:58;;;;;;;2.23;1.70;;;;;;;12.12;77.52;100881.88;4843620;29;20050;-66
2022/10/18 06:41:27;;;;;;;2.60;1.52;;;;;;;12.24;77.28;100879.47;4843155;29;20065;-65
2022/10/18 06:44:12;;;;;;;8.77;2.13;;;;;;;12.34;77.15;100871.03;4843310;29;20485;-65
2022/10/18 06:46:40;;;;;;;;;;;;;;;12.50;77.01;100878.06;4843452;29;20064;-65
2022/10/18 06:49:10;;;;;;;2.03;1.83;;;;;;;12.62;76.77;100873.06;4842927;29;19929;-66
2022/10/18 06:51:44;;;;;;;2.28;1.92;;;;;;;12.74;76.51;100866.34;4842999;29;20090;-66
2022/10/18 06:54:12;;;;;;;;;;;;;;;12.80;76.42;100868.13;4843252;29;20046;-65
2022/10/18 06:56:46;;;;;;;0.98;0.93;;;;;;;12.90;76.43;100869.06;4841138;29;19928;-66
2022/10/18 06:59:17;;;;;;;0.73;0.73;;;;;;;12.96;76.38;100854.59;4832711;29;20058;-66
2022/10/18 07:01:45;;;;;;;3.97;2.88;;;;;;;13.02;76.33;100854.66;4842726;29;20056;-66
2022/10/18 07:04:14;;;;;;;1.75;1.48;;;;;;;13.10;76.51;100863.28;4842794;29;20430;-67
2022/10/18 07:06:42;;;;;;;1.40;1.13;;;;;;;13.22;76.21;100853.13;4840594;29;20058;-65
2022/10/18 07:09:11;;;;;;;1.65;1.55;;;;;;;13.29;76.33;100857.44;4841466;29;20140;-66
2022/10/18 07:11:40;;;;;;;1.05;0.93;;;;;;;13.40;76.16;100852.41;4839262;29;20433;-67
2022/10/18 07:14:08;;;;;;;0.95;0.88;;;;;;;13.54;75.82;100858.47;4832717;29;20062;-66
2022/10/18 07:16:44;;;;;;;1.27;1.17;;;;;;;13.59;75.18;100858.50;4842943;29;20054;-66
2022/10/18 07:19:13;;;;;;;1.52;1.40;;;;;;;13.71;74.98;100850.88;4842568;29;20061;-66
2022/10/18 07:21:42;;;;;;;5.05;1.15;;;;;;;13.86;75.45;100848.38;4842689;29;20060;-65
2022/10/18 07:24:11;;;;;;;3.78;2.05;;;;;;;14.01;75.12;100853.59;4842771;29;20083;-66
2022/10/18 07:26:41;;;;;;;1.48;0.90;;;;;;;14.15;74.84;100846.81;4843118;29;20046;-65
2022/10/18 07:29:12;;;;;;;1.08;1.02;;;;;;;14.27;74.14;100851.97;4834885;29;20054;-65
2022/10/18 07:31:40;;;;;;;1.63;1.52;;;;;;;14.30;73.73;100846.84;4824631;29;20493;-66
2022/10/18 07:34:13;;;;;;;1.80;1.58;;;;;;;14.32;73.71;100845.19;4827917;29;20080;-65
2022/10/18 07:36:42;;;;;;;1.33;1.23;;;;;;;14.39;73.42;100838.34;4843960;29;20512;-66
2022/10/18 07:39:10;;;;;;;1.23;1.08;;;;;;;14.48;73.68;100835.78;4846159;29;20148;-65
2022/10/18 07:41:39;;;;;;;2.70;1.63;;;;;;;14.64;73.44;100840.94;4846078;29;20046;-65
2022/10/18 07:44:07;;;;;;;1.35;1.25;;;;;;;14.74;73.47;100839.25;4846506;29;20042;-66
2022/10/18 07:46:37;;;;;;;0.90;0.90;;;;;;;14.89;73.28;100828.13;4839994;29;20118;-66
2022/10/18 07:49:05;;;;;;;1.92;1.58;;;;;;;14.99;73.01;100829.84;4832099;29;20046;-66
2022/10/18 07:51:35;;;;;;;5.40;2.30;;;;;;;15.11;72.31;100840.13;4827862;29;20137;-66
2022/10/18 07:54:04;;;;;;;1.70;1.25;;;;;;;15.25;72.19;100839.25;4833342;29;20068;-66
2022/10/18 07:56:33;;;;;;;1.15;1.05;;;;;;;15.34;71.93;100844.38;4845916;29;20045;-66
2022/10/18 07:59:01;;;;;;;1.60;1.10;;;;;;;15.44;72.05;100834.94;4845900;29;20136;-66
2022/10/18 08:01:30;;;;;;;1.13;1.02;;;;;;;15.58;71.32;100837.50;4845790;29;20110;-66
2022/10/18 08:03:59;;;;;;;1.77;1.67;;;;;;;15.65;70.98;100834.91;4838810;29;20042;-66
2022/10/18 08:06:35;;;;;;;1.70;1.55;;;;;;;15.74;71.13;100834.03;4828095;29;20053;-68
2022/10/18 08:09:04;;;;;;;1.02;0.93;;;;;;;15.81;70.27;100840.88;4827482;29;20046;-66
2022/10/18 08:11:33;;;;;;;1.33;1.13;;;;;;;15.82;70.17;100833.13;4829779;29;20424;-66
2022/10/18 08:14:02;;;;;;;5.93;1.07;;;;;;;15.97;70.13;100827.94;4827742;29;20067;-66
2022/10/18 08:16:31;;;;;;;1.25;1.15;;;;;;;16.10;69.34;100829.56;4827518;29;20049;-67
2022/10/18 08:19:04;;;;;;;1.48;1.38;;;;;;;16.15;68.67;100818.41;4827305;29;20493;-67
2022/10/18 08:21:33;;;;;;;4.72;1.92;;;;;;;16.26;67.85;100825.22;4826748;29;20502;-69
2022/10/18 08:24:04;;;;;;;0.77;0.77;;;;;;;16.27;67.55;100806.31;4834678;29;20069;-66
2022/10/18 08:26:32;;;;;;;1.00;0.82;;;;;;;16.43;66.85;100817.38;4845881;29;20289;-66
2022/10/18 08:29:01;;;;;;;1.23;1.13;;;;;;;16.56;66.60;100819.03;4844543;29;20071;-66
2022/10/18 08:31:50;;;;;;;2.03;1.73;;;;;;;16.72;65.83;100808.59;4827094;29;20062;-66
2022/10/18 08:34:18;;;;;;;1.45;1.35;;;;;;;16.85;65.71;100811.94;4826835;29;20054;-66
2022/10/18 08:36:47;;;;;;;0.85;0.85;;;;;;;16.97;64.95;100806.69;4827255;29;20505;-67
2022/10/18 08:39:17;;;;;;;2.50;1.10;;;;;;;17.10;63.70;100808.31;4841855;29;20080;-66
2022/10/18 08:42:08;;;;;;;2.00;1.73;;;;;;;17.16;63.08;100808.22;4845714;29;20103;-66
2022/10/18 08:44:44;;;;;;;2.70;2.08;;;;;;;17.32;63.12;100794.28;4842975;29;20061;-66
2022/10/18 08:47:16;;;;;;;0.70;0.70;;;;;;;17.43;62.25;100792.47;4844480;29;20046;-67
2022/10/18 08:49:48;;;;;;;1.15;1.05;;;;;;;17.52;61.48;100790.69;4845243;29;20489;-67
2022/10/18 08:52:26;;;;;;;1.85;1.10;;;;;;;17.59;61.25;100787.19;4832029;29;20053;-67
2022/10/18 08:55:03;;;;;;;1.10;0.95;;;;;;;17.76;61.04;100787.81;4826441;29;20053;-67
2022/10/18 08:57:32;;;;;;;1.05;0.95;;;;;;;17.90;60.16;100788.53;4826762;29;20050;-69
2022/10/18 09:00:02;;;;;;;;;;;;;;;18.07;59.10;100786.53;4844608;29;20050;-67
2022/10/18 09:02:49;;;;;;;1.90;1.20;;;;;;;18.22;57.92;100783.75;4844636;29;19928;-67
2022/10/18 09:05:28;;;;;;;2.22;1.80;;;;;;;18.28;57.28;100769.91;4845089;29;20132;-67
2022/10/18 09:08:15;;;;;;;2.63;1.83;;;;;;;18.36;57.29;100768.03;4843514;29;20054;-69
2022/10/18 09:10:57;;;;;;;1.95;1.38;;;;;;;18.41;57.12;100776.59;4844871;29;20515;-67
2022/10/18 09:13:59;;;;;;;0.80;0.80;;;;;;;18.52;56.71;100770.41;4839717;29;20097;-67
2022/10/18 09:16:39;;;;;;;0.60;0.60;;;;;;;18.58;56.65;100767.72;4826166;29;20054;-68
2022/10/18 09:19:21;;;;;;;0.63;0.63;;;;;;;18.66;56.34;100763.31;4833686;29;20066;-67
2022/10/18 09:21:53;;;;;;;1.25;0.80;;;;;;;18.74;55.96;100755.38;4833434;29;20046;-67
2022/10/18 09:24:28;;;;;;;1.98;1.83;;;;;;;18.99;56.36;100766.19;4826343;29;20054;-66
2022/10/18 09:27:05;;;;;;;1.73;1.33;;;;;;;19.20;56.19;100755.44;4826103;29;20089;-67
2022/10/18 09:29:49;;;;;;;1.00;1.00;;;;;;;19.38;56.24;100750.81;4841296;29;20057;-67
2022/10/18 09:32:31;;;;;;;2.35;1.88;;;;;;;19.36;55.41;100749.13;4838573;29;20050;-67
2022/10/18 09:35:05;;;;;;;1.50;1.15;;;;;;;19.42;54.53;100746.41;4831665;29;20466;-67
2022/10/18 09:37:35;;;;;;;1.52;1.13;;;;;;;19.48;54.16;100740.28;4826189;29;20058;-67
2022/10/18 09:40:14;;;;;;;1.95;1.13;;;;;;;19.46;53.65;100732.50;4825928;29;20038;-67
2022/10/18 09:42:55;;;;;;;1.70;1.50;;;;;;;19.47;53.42;100728.19;4832991;29;20050;-67
2022/10/18 09:45:29;;;;;;;3.03;1.70;;;;;;;19.60;53.55;100735.69;4838128;29;20057;-67
2022/10/18 09:48:07;;;;;;;0.82;0.80;;;;;;;19.80;53.30;100728.34;4825755;29;20051;-67
2022/10/18 09:50:41;;;;;;;0.93;0.80;;;;;;;19.76;52.95;100726.72;4826035;29;20070;-67
2022/10/18 09:53:20;;;;;;;1.23;1.13;;;;;;;19.88;53.08;100726.44;4826037;29;20050;-67
2022/10/18 09:56:00;;;;;;;0.70;0.70;;;;;;;19.97;52.65;100717.59;4825262;29;20102;-67
2022/10/18 09:58:40;;;;;;;2.35;1.08;;;;;;;20.01;52.27;100712.31;4830963;29;20508;-67
2022/10/18 10:01:11;;;;;;;1.20;1.10;;;;;;;20.04;51.75;100707.06;4835708;29;20042;-65
2022/10/18 10:03:41;;;;;;;1.00;0.90;;;;;;;20.20;51.60;100710.19;4843124;29;20054;-67
2022/10/18 10:06:23;;;;;;;0.52;0.52;;;;;;;20.28;51.51;100697.03;4843803;29;20050;-67
2022/10/18 10:08:58;;;;;;;0.95;0.95;;;;;;;20.51;51.39;100702.53;4843542;29;20062;-67
2022/10/18 10:11:30;;;;;;;0.70;0.70;;;;;;;20.63;50.96;100697.03;4843902;29;20053;-67
2022/10/18 10:14:09;;;;;;;1.10;1.00;;;;;;;20.60;50.41;100691.91;4840372;29;21013;-68
2022/10/18 10:16:54;;;;;;;1.40;1.10;;;;;;;20.62;49.00;100684.94;4843414;29;20133;-70
2022/10/18 10:19:31;;;;;;;1.33;0.95;;;;;;;20.75;48.17;100678.56;4842606;29;20054;-67
2022/10/18 10:22:04;;;;;;;0.93;0.93;;;;;;;20.93;47.26;100680.66;4843690;29;20046;-69
2022/10/18 10:24:43;;;;;;;0.95;0.93;;;;;;;20.97;46.33;100677.06;4843627;29;20053;-70
2022/10/18 10:27:20;;;;;;;2.30;1.25;;;;;;;20.96;45.91;100675.38;4843574;29;20052;-67
2022/10/18 10:29:55;;;;;;;5.07;1.45;;;;;;;21.06;45.88;100665.63;4843517;29;20054;-67
2022/10/18 10:32:31;;;;;;;0.60;0.60;;;;;;;21.12;45.21;100655.91;4843287;29;20049;-66
2022/10/18 10:35:00;;;;;;;0.93;0.88;;;;;;;21.22;44.19;100667.75;4842133;29;20057;-68
2022/10/18 10:37:34;;;;;;;7.87;0.87;;;;;;;21.30;43.01;100655.41;4843493;29;20072;-67
2022/10/18 10:40:14;;;;;;;0.68;0.68;;;;;;;21.35;43.63;100669.09;4843231;29;20569;-67
2022/10/18 10:43:10;;;;;;;0.68;0.68;;;;;;;21.34;43.37;100654.41;4839314;29;20512;-68
2022/10/18 10:46:07;;;;;;;1.15;0.88;;;;;;;21.36;42.98;100647.41;4835352;29;20386;-66
2022/10/18 10:48:46;;;;;;;1.58;1.20;;;;;;;21.43;43.11;100649.84;4833083;29;20050;-66
2022/10/18 10:51:19;;;;;;;0.47;0.47;;;;;;;21.64;43.57;100644.88;4825242;29;20092;-66
2022/10/18 10:53:51;;;;;;;0.75;0.60;;;;;;;21.59;43.26;100635.50;4824872;29;20054;-67
2022/10/18 10:56:27;;;;;;;0.93;0.93;;;;;;;21.62;43.19;100635.41;4825252;29;20111;-66
2022/10/18 10:59:00;;;;;;;2.17;1.58;;;;;;;21.69;43.61;100629.13;4836268;29;20046;-67
2022/10/18 11:01:33;;;;;;;1.10;0.93;;;;;;;21.67;43.86;100633.50;4840676;29;20046;-67
2022/10/18 11:04:21;;;;;;;2.17;1.38;;;;;;;21.78;44.09;100631.44;4837992;29;20053;-67
2022/10/18 11:07:00;;;;;;;0.68;0.68;;;;;;;21.81;44.02;100620.94;4842590;29;20046;-67
2022/10/18 11:09:41;;;;;;;0.67;0.67;;;;;;;21.92;44.02;100614.53;4842800;29;20493;-67
2022/10/18 11:12:24;;;;;;;0.60;0.60;;;;;;;21.93;43.31;100618.00;4842804;29;20110;-66
2022/10/18 11:15:04;;;;;;;1.55;1.08;;;;;;;21.90;43.58;100615.50;4842458;29;20054;-66
2022/10/18 11:17:40;;;;;;;0.68;0.68;;;;;;;21.94;43.77;100609.28;4837018;29;20102;-67
2022/10/18 11:20:15;;;;;;;0.77;0.77;;;;;;;22.07;43.46;100612.34;4842967;29;20126;-66
2022/10/18 11:22:52;;;;;;;0.80;0.80;;;;;;;22.07;42.91;100610.59;4841494;29;20065;-67
2022/10/18 11:25:25;;;;;;;0.57;0.57;;;;;;;22.24;42.83;100610.91;4842318;29;20058;-66
2022/10/18 11:27:59;;;;;;;0.70;0.70;;;;;;;22.33;42.11;100612.31;4842853;29;20050;-67
2022/10/18 11:30:52;;;;;;;0.82;0.68;;;;;;;22.36;42.06;100610.44;4842948;29;20149;-67
2022/10/18 11:33:33;;;;;;;0.93;0.88;;;;;;;22.21;41.92;100597.97;4842495;29;20042;-67
2022/10/18 11:36:28;;;;;;;1.20;1.10;;;;;;;22.28;42.11;100594.28;4842523;29;20544;-68
2022/10/18 11:39:05;;;;;;;0.43;0.43;;;;;;;22.46;42.19;100596.22;4839394;29;20070;-68
2022/10/18 11:41:40;;;;;;;0.88;0.70;;;;;;;22.48;41.91;100597.03;4842432;29;20573;-67
2022/10/18 11:44:20;;;;;;;1.25;0.90;;;;;;;22.41;41.52;100586.91;4842470;29;20103;-67
2022/10/18 11:47:01;;;;;;;0.77;0.77;;;;;;;22.48;41.32;100588.38;4841696;29;20058;-69
2022/10/18 11:49:48;;;;;;;4.13;1.52;;;;;;;22.59;41.19;100581.91;4840006;29;20052;-68
2022/10/18 11:52:27;;;;;;;0.50;0.50;;;;;;;22.62;41.10;100570.56;4840195;29;20046;-68
2022/10/18 11:55:05;;;;;;;0.85;0.85;;;;;;;22.64;40.69;100563.53;4831834;29;20058;-68